sensor_id;sensor_type;location;lat;lon;timestamp;P1;durP1;ratioP1;P2;durP2;ratioP2
3815;SDS011;1923;48.154;11.536;2022-11-20T00:01:03;4.00;;;2.87;;
3815;SDS011;1923;48.154;11.536;2022-11-20T00:03:32;3.50;;;2.63;;
3815;SDS011;1923;48.154;11.536;2022-11-20T00:06:00;4.20;;;2.50;;
3815;SDS011;1923;48.154;11.536;2022-11-20T00:08:29;2.63;;;2.37;;
3815;SDS011;1923;48.154;11.536;2022-11-20T00:11:01;3.40;;;2.60;;
3815;SDS011;1923;48.154;11.536;2022-11-20T00:13:30;4.73;;;3.30;;
3815;SDS011;1923;48.154;11.536;2022-11-20T00:16:00;3.07;;;2.07;;
3815;SDS011;1923;48.154;11.536;2022-11-20T00:18:30;7.30;;;2.67;;
3815;SDS011;1923;48.154;11.536;2022-11-20T00:21:02;3.23;;;2.47;;
3815;SDS011;1923;48.154;11.536;2022-11-20T00:23:31;3.30;;;3.00;;
3815;SDS011;1923;48.154;11.536;2022-11-20T00:26:03;2.30;;;2.10;;
3815;SDS011;1923;48.154;11.536;2022-11-20T00:28:33;3.90;;;2.50;;
3815;SDS011;1923;48.154;11.536;2022-11-20T00:31:02;3.50;;;2.40;;
3815;SDS011;1923;48.154;11.536;2022-11-20T00:33:31;5.00;;;3.73;;
3815;SDS011;1923;48.154;11.536;2022-11-20T00:36:00;3.57;;;3.00;;
3815;SDS011;1923;48.154;11.536;2022-11-20T00:38:29;3.97;;;2.90;;
3815;SDS011;1923;48.154;11.536;2022-11-20T00:40:58;3.50;;;2.50;;
3815;SDS011;1923;48.154;11.536;2022-11-20T00:43:27;3.30;;;2.40;;
3815;SDS011;1923;48.154;11.536;2022-11-20T00:45:56;4.40;;;2.70;;
3815;SDS011;1923;48.154;11.536;2022-11-20T00:48:25;4.07;;;2.40;;
3815;SDS011;1923;48.154;11.536;2022-11-20T00:50:53;4.27;;;3.03;;
3815;SDS011;1923;48.154;11.536;2022-11-20T00:53:21;2.90;;;2.40;;
3815;SDS011;1923;48.154;11.536;2022-11-20T00:55:53;4.07;;;2.97;;
3815;SDS011;1923;48.154;11.536;2022-11-20T13:22:26;2.07;;;1.57;;
3815;SDS011;1923;48.154;11.536;2022-11-20T13:24:56;1.47;;;1.37;;
3815;SDS011;1923;48.154;11.536;2022-11-20T13:27:24;2.20;;;1.90;;
3815;SDS011;1923;48.154;11.536;2022-11-20T13:29:59;2.50;;;2.23;;
3815;SDS011;1923;48.154;11.536;2022-11-20T13:32:30;1.97;;;1.87;;
3815;SDS011;1923;48.154;11.536;2022-11-20T13:34:59;3.60;;;2.20;;
3815;SDS011;1923;48.154;11.536;2022-11-20T13:37:30;2.50;;;2.30;;
3815;SDS011;1923;48.154;11.536;2022-11-20T13:40:11;2.80;;;2.13;;
3815;SDS011;1923;48.154;11.536;2022-11-20T13:42:51;2.77;;;2.50;;
3815;SDS011;1923;48.154;11.536;2022-11-20T13:45:24;2.70;;;1.87;;
3815;SDS011;1923;48.154;11.536;2022-11-20T13:47:53;2.00;;;1.80;;
3815;SDS011;1923;48.154;11.536;2022-11-20T13:50:27;3.87;;;2.43;;
3815;SDS011;1923;48.154;11.536;2022-11-20T13:53:13;3.57;;;1.87;;
3815;SDS011;1923;48.154;11.536;2022-11-20T13:55:58;2.70;;;2.40;;
3815;SDS011;1923;48.154;11.536;2022-11-20T13:58:31;3.30;;;2.47;;
3815;SDS011;1923;48.154;11.536;2022-11-20T14:01:14;2.30;;;1.90;;
3815;SDS011;1923;48.154;11.536;2022-11-20T14:03:44;4.27;;;2.47;;
3815;SDS011;1923;48.154;11.536;2022-11-20T14:06:32;2.23;;;2.00;;
3815;SDS011;1923;48.154;11.536;2022-11-20T14:09:11;3.13;;;2.83;;
3815;SDS011;1923;48.154;11.536;2022-11-20T14:11:45;6.40;;;3.43;;
3815;SDS011;1923;48.154;11.536;2022-11-20T14:14:15;3.40;;;2.10;;
3815;SDS011;1923;48.154;11.536;2022-11-20T14:16:47;2.97;;;2.67;;
3815;SDS011;1923;48.154;11.536;2022-11-20T14:19:23;2.50;;;1.50;;
3815;SDS011;1923;48.154;11.536;2022-11-20T14:22:05;2.03;;;1.83;;
3815;SDS011;1923;48.154;11.536;2022-11-20T14:24:37;3.43;;;2.33;;
3815;SDS011;1923;48.154;11.536;2022-11-20T14:27:09;2.50;;;2.23;;
3815;SDS011;1923;48.154;11.536;2022-11-20T14:29:40;2.40;;;1.70;;
3815;SDS011;1923;48.154;11.536;2022-11-20T14:32:09;2.63;;;2.07;;
3815;SDS011;1923;48.154;11.536;2022-11-20T14:34:38;2.67;;;2.30;;
3815;SDS011;1923;48.154;11.536;2022-11-20T14:37:10;1.97;;;1.77;;
3815;SDS011;1923;48.154;11.536;2022-11-20T14:39:47;2.17;;;1.60;;
3815;SDS011;1923;48.154;11.536;2022-11-20T14:42:19;7.60;;;2.40;;
3815;SDS011;1923;48.154;11.536;2022-11-20T14:44:49;4.20;;;1.73;;
3815;SDS011;1923;48.154;11.536;2022-11-20T14:47:18;2.30;;;1.80;;
3815;SDS011;1923;48.154;11.536;2022-11-20T14:49:49;3.53;;;1.90;;
3815;SDS011;1923;48.154;11.536;2022-11-20T14:52:19;3.60;;;1.80;;
3815;SDS011;1923;48.154;11.536;2022-11-20T14:54:50;1.90;;;1.10;;
3815;SDS011;1923;48.154;11.536;2022-11-20T14:57:21;1.93;;;1.50;;
3815;SDS011;1923;48.154;11.536;2022-11-20T15:00:06;1.93;;;1.40;;
3815;SDS011;1923;48.154;11.536;2022-11-20T15:02:45;1.90;;;1.77;;
3815;SDS011;1923;48.154;11.536;2022-11-20T15:05:15;1.50;;;1.13;;
3815;SDS011;1923;48.154;11.536;2022-11-20T15:07:44;1.20;;;1.03;;
3815;SDS011;1923;48.154;11.536;2022-11-20T15:10:20;1.27;;;1.17;;
3815;SDS011;1923;48.154;11.536;2022-11-20T15:12:50;1.90;;;1.40;;
3815;SDS011;1923;48.154;11.536;2022-11-20T15:15:21;1.27;;;1.13;;
3815;SDS011;1923;48.154;11.536;2022-11-20T15:17:52;2.33;;;1.47;;
3815;SDS011;1923;48.154;11.536;2022-11-20T15:20:21;1.40;;;1.30;;
3815;SDS011;1923;48.154;11.536;2022-11-20T15:22:53;1.43;;;1.10;;
3815;SDS011;1923;48.154;11.536;2022-11-20T15:25:22;0.90;;;0.73;;
3815;SDS011;1923;48.154;11.536;2022-11-20T15:27:51;2.25;;;1.40;;
3815;SDS011;1923;48.154;11.536;2022-11-20T15:30:22;1.80;;;1.20;;
3815;SDS011;1923;48.154;11.536;2022-11-20T15:32:51;2.30;;;1.90;;
3815;SDS011;1923;48.154;11.536;2022-11-20T15:35:19;1.83;;;1.40;;
3815;SDS011;1923;48.154;11.536;2022-11-20T15:37:47;1.80;;;1.60;;
3815;SDS011;1923;48.154;11.536;2022-11-20T15:40:15;2.20;;;1.60;;
3815;SDS011;1923;48.154;11.536;2022-11-20T15:42:44;3.63;;;2.07;;
3815;SDS011;1923;48.154;11.536;2022-11-20T15:45:27;4.23;;;1.87;;
3815;SDS011;1923;48.154;11.536;2022-11-20T15:47:56;2.80;;;2.03;;
3815;SDS011;1923;48.154;11.536;2022-11-20T15:50:25;2.80;;;2.20;;
3815;SDS011;1923;48.154;11.536;2022-11-20T15:53:01;2.60;;;2.20;;
3815;SDS011;1923;48.154;11.536;2022-11-20T15:55:29;3.43;;;2.17;;
3815;SDS011;1923;48.154;11.536;2022-11-20T15:58:00;3.03;;;1.75;;
3815;SDS011;1923;48.154;11.536;2022-11-20T16:00:28;2.10;;;1.57;;
3815;SDS011;1923;48.154;11.536;2022-11-20T16:02:56;3.77;;;2.33;;
3815;SDS011;1923;48.154;11.536;2022-11-20T16:05:27;3.90;;;1.93;;
3815;SDS011;1923;48.154;11.536;2022-11-20T16:07:55;2.83;;;1.80;;
3815;SDS011;1923;48.154;11.536;2022-11-20T16:10:23;4.23;;;2.60;;
3815;SDS011;1923;48.154;11.536;2022-11-20T16:12:52;2.30;;;1.80;;
3815;SDS011;1923;48.154;11.536;2022-11-20T16:15:39;3.10;;;2.57;;
3815;SDS011;1923;48.154;11.536;2022-11-20T16:18:15;3.40;;;1.70;;
3815;SDS011;1923;48.154;11.536;2022-11-20T16:20:44;3.63;;;2.27;;
3815;SDS011;1923;48.154;11.536;2022-11-20T16:23:13;3.03;;;2.73;;
3815;SDS011;1923;48.154;11.536;2022-11-20T16:25:41;3.43;;;2.63;;
3815;SDS011;1923;48.154;11.536;2022-11-20T16:28:10;2.57;;;2.37;;
3815;SDS011;1923;48.154;11.536;2022-11-20T16:30:45;4.40;;;3.13;;
3815;SDS011;1923;48.154;11.536;2022-11-20T16:33:14;4.30;;;2.60;;
3815;SDS011;1923;48.154;11.536;2022-11-20T16:35:44;3.50;;;2.87;;
3815;SDS011;1923;48.154;11.536;2022-11-20T16:38:12;4.23;;;3.33;;
3815;SDS011;1923;48.154;11.536;2022-11-20T16:40:40;2.40;;;2.20;;
3815;SDS011;1923;48.154;11.536;2022-11-20T16:43:08;4.97;;;3.13;;
3815;SDS011;1923;48.154;11.536;2022-11-20T16:45:39;2.53;;;2.05;;
3815;SDS011;1923;48.154;11.536;2022-11-20T16:48:12;3.20;;;2.40;;
3815;SDS011;1923;48.154;11.536;2022-11-20T16:50:45;3.57;;;2.33;;
3815;SDS011;1923;48.154;11.536;2022-11-20T16:53:15;4.17;;;2.70;;
3815;SDS011;1923;48.154;11.536;2022-11-20T16:55:44;4.80;;;3.93;;
3815;SDS011;1923;48.154;11.536;2022-11-20T16:58:12;4.05;;;3.35;;
3815;SDS011;1923;48.154;11.536;2022-11-20T17:00:41;4.40;;;3.30;;
3815;SDS011;1923;48.154;11.536;2022-11-20T17:03:17;4.37;;;3.07;;
3815;SDS011;1923;48.154;11.536;2022-11-20T17:05:46;5.10;;;3.43;;
3815;SDS011;1923;48.154;11.536;2022-11-20T17:08:14;4.10;;;3.30;;
3815;SDS011;1923;48.154;11.536;2022-11-20T17:10:42;7.70;;;3.70;;
3815;SDS011;1923;48.154;11.536;2022-11-20T17:13:10;5.77;;;3.90;;
3815;SDS011;1923;48.154;11.536;2022-11-20T17:15:38;4.30;;;3.83;;
3815;SDS011;1923;48.154;11.536;2022-11-20T17:18:06;5.43;;;3.93;;
3815;SDS011;1923;48.154;11.536;2022-11-20T17:20:35;5.93;;;3.60;;
3815;SDS011;1923;48.154;11.536;2022-11-20T17:23:03;4.93;;;4.30;;
3815;SDS011;1923;48.154;11.536;2022-11-20T17:25:31;7.00;;;4.10;;
3815;SDS011;1923;48.154;11.536;2022-11-20T17:28:00;7.70;;;5.00;;
3815;SDS011;1923;48.154;11.536;2022-11-20T17:30:29;6.53;;;4.27;;
3815;SDS011;1923;48.154;11.536;2022-11-20T17:32:57;6.35;;;4.00;;
3815;SDS011;1923;48.154;11.536;2022-11-20T17:35:25;6.40;;;4.30;;
3815;SDS011;1923;48.154;11.536;2022-11-20T17:37:54;7.30;;;4.57;;
3815;SDS011;1923;48.154;11.536;2022-11-20T17:40:22;5.80;;;4.83;;
3815;SDS011;1923;48.154;11.536;2022-11-20T17:42:53;5.93;;;4.50;;
3815;SDS011;1923;48.154;11.536;2022-11-20T17:45:21;5.80;;;4.43;;
3815;SDS011;1923;48.154;11.536;2022-11-20T17:47:49;5.50;;;4.43;;
3815;SDS011;1923;48.154;11.536;2022-11-20T17:50:17;5.97;;;4.30;;
3815;SDS011;1923;48.154;11.536;2022-11-20T17:52:45;7.80;;;4.73;;
3815;SDS011;1923;48.154;11.536;2022-11-20T17:55:15;5.50;;;4.90;;
3815;SDS011;1923;48.154;11.536;2022-11-20T17:57:43;9.20;;;4.50;;
3815;SDS011;1923;48.154;11.536;2022-11-20T18:00:22;8.83;;;4.80;;
3815;SDS011;1923;48.154;11.536;2022-11-20T18:02:51;5.07;;;4.03;;
3815;SDS011;1923;48.154;11.536;2022-11-20T18:05:19;9.97;;;5.37;;
3815;SDS011;1923;48.154;11.536;2022-11-20T18:07:50;11.23;;;6.03;;
3815;SDS011;1923;48.154;11.536;2022-11-20T18:10:21;7.37;;;4.60;;
3815;SDS011;1923;48.154;11.536;2022-11-20T18:12:49;6.47;;;4.50;;
3815;SDS011;1923;48.154;11.536;2022-11-20T18:15:19;8.27;;;5.03;;
3815;SDS011;1923;48.154;11.536;2022-11-20T18:17:47;6.40;;;5.10;;
3815;SDS011;1923;48.154;11.536;2022-11-20T18:20:15;7.53;;;5.13;;
3815;SDS011;1923;48.154;11.536;2022-11-20T18:22:56;6.50;;;4.50;;
3815;SDS011;1923;48.154;11.536;2022-11-20T18:25:26;7.17;;;4.40;;
3815;SDS011;1923;48.154;11.536;2022-11-20T18:27:54;6.63;;;4.20;;
3815;SDS011;1923;48.154;11.536;2022-11-20T18:30:22;6.57;;;4.57;;
3815;SDS011;1923;48.154;11.536;2022-11-20T18:32:50;10.10;;;5.50;;
3815;SDS011;1923;48.154;11.536;2022-11-20T18:35:18;12.67;;;5.10;;
3815;SDS011;1923;48.154;11.536;2022-11-20T18:37:46;6.00;;;4.20;;
3815;SDS011;1923;48.154;11.536;2022-11-20T18:40:15;7.37;;;4.93;;
3815;SDS011;1923;48.154;11.536;2022-11-20T18:42:44;6.40;;;4.70;;
3815;SDS011;1923;48.154;11.536;2022-11-20T18:45:30;6.70;;;4.10;;
3815;SDS011;1923;48.154;11.536;2022-11-20T18:47:58;10.40;;;4.87;;
3815;SDS011;1923;48.154;11.536;2022-11-20T18:50:26;5.83;;;4.50;;
3815;SDS011;1923;48.154;11.536;2022-11-20T18:52:54;8.53;;;6.00;;
3815;SDS011;1923;48.154;11.536;2022-11-20T18:55:22;6.90;;;4.30;;
3815;SDS011;1923;48.154;11.536;2022-11-20T18:57:52;7.30;;;4.30;;
3815;SDS011;1923;48.154;11.536;2022-11-20T19:00:21;6.23;;;4.40;;
3815;SDS011;1923;48.154;11.536;2022-11-20T19:02:51;7.93;;;3.63;;
3815;SDS011;1923;48.154;11.536;2022-11-20T19:05:19;7.90;;;5.20;;
3815;SDS011;1923;48.154;11.536;2022-11-20T19:07:48;7.30;;;4.67;;
3815;SDS011;1923;48.154;11.536;2022-11-20T19:10:16;5.30;;;4.20;;
3815;SDS011;1923;48.154;11.536;2022-11-20T19:12:45;6.53;;;4.27;;
3815;SDS011;1923;48.154;11.536;2022-11-20T19:15:15;8.53;;;4.50;;
3815;SDS011;1923;48.154;11.536;2022-11-20T19:17:43;6.13;;;4.00;;
3815;SDS011;1923;48.154;11.536;2022-11-20T19:20:11;7.13;;;4.80;;
3815;SDS011;1923;48.154;11.536;2022-11-20T19:22:39;9.13;;;4.20;;
3815;SDS011;1923;48.154;11.536;2022-11-20T19:25:07;5.77;;;4.20;;
3815;SDS011;1923;48.154;11.536;2022-11-20T19:27:35;8.73;;;3.80;;
3815;SDS011;1923;48.154;11.536;2022-11-20T19:30:04;8.27;;;4.00;;
3815;SDS011;1923;48.154;11.536;2022-11-20T19:32:34;5.10;;;4.20;;
3815;SDS011;1923;48.154;11.536;2022-11-20T19:35:02;8.20;;;4.30;;
3815;SDS011;1923;48.154;11.536;2022-11-20T19:37:31;9.30;;;4.97;;
3815;SDS011;1923;48.154;11.536;2022-11-20T19:40:00;5.97;;;4.03;;
3815;SDS011;1923;48.154;11.536;2022-11-20T19:42:30;5.93;;;4.37;;
3815;SDS011;1923;48.154;11.536;2022-11-20T19:44:58;4.03;;;3.63;;
3815;SDS011;1923;48.154;11.536;2022-11-20T19:47:26;4.80;;;3.60;;
3815;SDS011;1923;48.154;11.536;2022-11-20T19:50:15;6.30;;;4.70;;
3815;SDS011;1923;48.154;11.536;2022-11-20T19:52:44;3.87;;;3.33;;
3815;SDS011;1923;48.154;11.536;2022-11-20T19:55:12;5.97;;;3.70;;
3815;SDS011;1923;48.154;11.536;2022-11-20T19:57:40;6.07;;;3.70;;
3815;SDS011;1923;48.154;11.536;2022-11-20T20:00:08;5.43;;;3.10;;
3815;SDS011;1923;48.154;11.536;2022-11-20T20:02:37;6.63;;;3.93;;
3815;SDS011;1923;48.154;11.536;2022-11-20T20:05:06;4.53;;;3.73;;
3815;SDS011;1923;48.154;11.536;2022-11-20T20:07:35;6.00;;;4.20;;
3815;SDS011;1923;48.154;11.536;2022-11-20T20:10:05;5.53;;;3.80;;
3815;SDS011;1923;48.154;11.536;2022-11-20T20:12:34;6.20;;;3.73;;
3815;SDS011;1923;48.154;11.536;2022-11-20T20:15:02;4.00;;;3.57;;
3815;SDS011;1923;48.154;11.536;2022-11-20T20:17:31;4.97;;;4.10;;
3815;SDS011;1923;48.154;11.536;2022-11-20T20:19:59;6.10;;;4.23;;
3815;SDS011;1923;48.154;11.536;2022-11-20T20:22:27;6.10;;;3.90;;
3815;SDS011;1923;48.154;11.536;2022-11-20T20:24:57;4.40;;;3.20;;
3815;SDS011;1923;48.154;11.536;2022-11-20T20:27:25;5.23;;;3.73;;
3815;SDS011;1923;48.154;11.536;2022-11-20T20:29:53;6.20;;;4.30;;
3815;SDS011;1923;48.154;11.536;2022-11-20T20:32:21;4.03;;;3.20;;
3815;SDS011;1923;48.154;11.536;2022-11-20T20:34:49;5.37;;;3.17;;
3815;SDS011;1923;48.154;11.536;2022-11-20T20:37:17;4.70;;;3.90;;
3815;SDS011;1923;48.154;11.536;2022-11-20T20:39:45;3.60;;;3.13;;
3815;SDS011;1923;48.154;11.536;2022-11-20T20:42:14;4.77;;;3.50;;
3815;SDS011;1923;48.154;11.536;2022-11-20T20:44:42;5.03;;;3.53;;
3815;SDS011;1923;48.154;11.536;2022-11-20T20:47:28;5.57;;;3.27;;
3815;SDS011;1923;48.154;11.536;2022-11-20T20:49:56;3.63;;;3.13;;
3815;SDS011;1923;48.154;11.536;2022-11-20T20:52:25;4.10;;;3.10;;
3815;SDS011;1923;48.154;11.536;2022-11-20T20:54:53;3.90;;;3.00;;
3815;SDS011;1923;48.154;11.536;2022-11-20T20:57:23;4.00;;;2.83;;
3815;SDS011;1923;48.154;11.536;2022-11-20T20:59:53;4.53;;;3.30;;
3815;SDS011;1923;48.154;11.536;2022-11-20T21:02:21;4.23;;;3.10;;
3815;SDS011;1923;48.154;11.536;2022-11-20T21:04:50;3.97;;;3.00;;
3815;SDS011;1923;48.154;11.536;2022-11-20T21:07:18;3.77;;;2.20;;
3815;SDS011;1923;48.154;11.536;2022-11-20T21:09:46;4.80;;;2.63;;
3815;SDS011;1923;48.154;11.536;2022-11-20T21:12:14;3.30;;;3.00;;
3815;SDS011;1923;48.154;11.536;2022-11-20T21:14:43;6.30;;;2.63;;
3815;SDS011;1923;48.154;11.536;2022-11-20T21:17:12;3.20;;;2.53;;
3815;SDS011;1923;48.154;11.536;2022-11-20T21:19:40;3.10;;;2.10;;
3815;SDS011;1923;48.154;11.536;2022-11-20T21:22:08;2.80;;;2.40;;
3815;SDS011;1923;48.154;11.536;2022-11-20T21:24:35;2.90;;;2.33;;
3815;SDS011;1923;48.154;11.536;2022-11-20T21:27:04;3.20;;;2.23;;
3815;SDS011;1923;48.154;11.536;2022-11-20T21:29:32;2.17;;;1.38;;
3815;SDS011;1923;48.154;11.536;2022-11-20T21:32:01;3.33;;;1.40;;
3815;SDS011;1923;48.154;11.536;2022-11-20T21:34:29;2.40;;;1.73;;
3815;SDS011;1923;48.154;11.536;2022-11-20T21:36:57;2.60;;;2.00;;
3815;SDS011;1923;48.154;11.536;2022-11-20T21:39:26;1.77;;;1.53;;
3815;SDS011;1923;48.154;11.536;2022-11-20T21:41:55;2.70;;;2.07;;
3815;SDS011;1923;48.154;11.536;2022-11-20T21:44:23;3.27;;;2.17;;
3815;SDS011;1923;48.154;11.536;2022-11-20T21:46:58;3.60;;;1.90;;
3815;SDS011;1923;48.154;11.536;2022-11-20T21:49:28;5.43;;;1.90;;
3815;SDS011;1923;48.154;11.536;2022-11-20T21:51:56;3.73;;;2.20;;
3815;SDS011;1923;48.154;11.536;2022-11-20T21:54:23;2.13;;;1.93;;
3815;SDS011;1923;48.154;11.536;2022-11-20T21:56:52;3.20;;;2.27;;
3815;SDS011;1923;48.154;11.536;2022-11-20T21:59:20;3.77;;;2.73;;
3815;SDS011;1923;48.154;11.536;2022-11-20T22:01:48;3.43;;;1.97;;
3815;SDS011;1923;48.154;11.536;2022-11-20T22:04:16;2.77;;;2.20;;
3815;SDS011;1923;48.154;11.536;2022-11-20T22:06:46;2.20;;;2.00;;
3815;SDS011;1923;48.154;11.536;2022-11-20T22:09:14;2.53;;;2.33;;
3815;SDS011;1923;48.154;11.536;2022-11-20T22:11:42;2.07;;;1.93;;
3815;SDS011;1923;48.154;11.536;2022-11-20T22:14:10;3.27;;;1.83;;
3815;SDS011;1923;48.154;11.536;2022-11-20T22:16:49;4.30;;;1.77;;
3815;SDS011;1923;48.154;11.536;2022-11-20T22:19:19;2.10;;;1.83;;
3815;SDS011;1923;48.154;11.536;2022-11-20T22:21:49;2.40;;;2.03;;
3815;SDS011;1923;48.154;11.536;2022-11-20T22:24:18;2.67;;;2.10;;
3815;SDS011;1923;48.154;11.536;2022-11-20T22:26:48;4.40;;;2.33;;
3815;SDS011;1923;48.154;11.536;2022-11-20T22:29:17;2.30;;;1.87;;
3815;SDS011;1923;48.154;11.536;2022-11-20T22:31:47;3.38;;;1.60;;
3815;SDS011;1923;48.154;11.536;2022-11-20T22:34:18;2.53;;;1.90;;
3815;SDS011;1923;48.154;11.536;2022-11-20T22:36:46;2.30;;;2.10;;
3815;SDS011;1923;48.154;11.536;2022-11-20T22:39:16;3.77;;;2.43;;
3815;SDS011;1923;48.154;11.536;2022-11-20T22:41:44;4.37;;;2.40;;
3815;SDS011;1923;48.154;11.536;2022-11-20T22:44:12;4.30;;;2.60;;
3815;SDS011;1923;48.154;11.536;2022-11-20T22:46:41;2.37;;;2.17;;
3815;SDS011;1923;48.154;11.536;2022-11-20T22:49:09;3.20;;;2.30;;
3815;SDS011;1923;48.154;11.536;2022-11-20T22:51:38;1.50;;;1.40;;
3815;SDS011;1923;48.154;11.536;2022-11-20T22:54:09;2.60;;;2.13;;
3815;SDS011;1923;48.154;11.536;2022-11-20T22:56:39;2.10;;;1.90;;
3815;SDS011;1923;48.154;11.536;2022-11-20T22:59:08;1.97;;;1.73;;
3815;SDS011;1923;48.154;11.536;2022-11-20T23:01:36;1.57;;;1.47;;
3815;SDS011;1923;48.154;11.536;2022-11-20T23:04:05;2.13;;;1.60;;
3815;SDS011;1923;48.154;11.536;2022-11-20T23:06:36;1.60;;;1.40;;
3815;SDS011;1923;48.154;11.536;2022-11-20T23:09:04;1.80;;;1.60;;
3815;SDS011;1923;48.154;11.536;2022-11-20T23:11:33;1.57;;;1.33;;
3815;SDS011;1923;48.154;11.536;2022-11-20T23:14:04;1.37;;;1.23;;
3815;SDS011;1923;48.154;11.536;2022-11-20T23:16:33;1.50;;;1.40;;
3815;SDS011;1923;48.154;11.536;2022-11-20T23:19:03;2.00;;;1.23;;
3815;SDS011;1923;48.154;11.536;2022-11-20T23:21:33;8.03;;;1.80;;
3815;SDS011;1923;48.154;11.536;2022-11-20T23:24:02;1.50;;;1.40;;
3815;SDS011;1923;48.154;11.536;2022-11-20T23:26:31;1.30;;;1.20;;
3815;SDS011;1923;48.154;11.536;2022-11-20T23:29:02;1.10;;;1.00;;
3815;SDS011;1923;48.154;11.536;2022-11-20T23:31:32;1.43;;;1.33;;
3815;SDS011;1923;48.154;11.536;2022-11-20T23:34:01;0.83;;;0.83;;
3815;SDS011;1923;48.154;11.536;2022-11-20T23:36:29;1.40;;;1.30;;
3815;SDS011;1923;48.154;11.536;2022-11-20T23:38:57;1.37;;;1.27;;
3815;SDS011;1923;48.154;11.536;2022-11-20T23:41:25;1.23;;;1.10;;
3815;SDS011;1923;48.154;11.536;2022-11-20T23:43:53;1.20;;;1.10;;
3815;SDS011;1923;48.154;11.536;2022-11-20T23:46:23;0.70;;;0.40;;
